Time;durP1;ratioP1;P1;durP2;ratioP2;P2;SDS_P1;SDS_P2;PMS_P1;PMS_P2;Temp;Humidity;BMP_temperature;BMP_pressure;BME280_temperature;BME280_humidity;BME280_pressure;Samples;Min_cycle;Max_cycle;Signal;HPM_P1;HPM_P2
2023/12/22 00:01:41;;;;;;;0.10;0.10;;;;;;;;;;4976600;28;20066;-85
2023/12/22 00:04:07;;;;;;;0.10;0.10;;;;;;;;;;4976767;28;20072;-87
2023/12/22 00:06:33;;;;;;;0.20;0.20;;;;;;;;;;4976901;28;20125;-87
2023/12/22 00:08:59;;;;;;;0.43;0.43;;;;;;;;;;4992900;28;20468;-86
2023/12/22 00:11:25;;;;;;;0.47;0.47;;;;;;;;;;4976623;28;20073;-85
2023/12/22 00:13:51;;;;;;;1.45;0.60;;;;;;;;;;4976907;28;20053;-85
2023/12/22 00:16:17;;;;;;;0.10;0.10;;;;;;;;;;4975565;28;20038;-87
2023/12/22 00:18:44;;;;;;;0.10;0.10;;;;;;;;;;4976521;28;20046;-85
2023/12/22 00:21:10;;;;;;;0.65;0.65;;;;;;;;;;4976406;28;20124;-85
2023/12/22 00:23:37;;;;;;;0.40;0.40;;;;;;;;;;4976425;28;20054;-85
2023/12/22 00:26:03;;;;;;;0.32;0.30;;;;;;;;;;4992719;28;20049;-86
2023/12/22 00:28:31;;;;;;;0.20;0.20;;;;;;;;;;4960284;28;20073;-86
2023/12/22 00:30:58;;;;;;;0.10;0.10;;;;;;;;;;4976269;28;20039;-87
2023/12/22 00:33:24;;;;;;;0.32;0.20;;;;;;;;;;4976432;28;20038;-87
2023/12/22 00:35:50;;;;;;;0.10;0.10;;;;;;;;;;4976254;28;20078;-87
2023/12/22 00:38:16;;;;;;;0.10;0.10;;;;;;;;;;4976228;28;20084;-86
2023/12/22 00:40:42;;;;;;;2.08;1.75;;;;;;;;;;4976129;28;20478;-86
2023/12/22 00:43:08;;;;;;;3.85;0.32;;;;;;;;;;4992335;28;20053;-87
2023/12/22 00:45:34;;;;;;;0.17;0.17;;;;;;;;;;4976156;28;20046;-87
2023/12/22 00:48:00;;;;;;;0.38;0.30;;;;;;;;;;4976157;28;20038;-86
2023/12/22 00:50:26;;;;;;;0.10;0.10;;;;;;;;;;4976278;28;20042;-87
2023/12/22 00:52:52;;;;;;;0.30;0.30;;;;;;;;;;4975917;28;20042;-88
2023/12/22 00:55:18;;;;;;;0.10;0.10;;;;;;;;;;4975947;28;20049;-86
2023/12/22 00:57:44;;;;;;;0.10;0.10;;;;;;;;;;4975933;28;20046;-87
2023/12/22 01:00:12;;;;;;;0.10;0.10;;;;;;;;;;4975925;28;20053;-86
2023/12/22 01:02:38;;;;;;;0.20;0.20;;;;;;;;;;4975726;28;20069;-87
2023/12/22 01:05:04;;;;;;;1.48;1.17;;;;;;;;;;4975667;28;20123;-87
2023/12/22 01:07:30;;;;;;;0.25;0.25;;;;;;;;;;4975731;28;20229;-88
2023/12/22 01:10:01;;;;;;;0.20;0.20;;;;;;;;;;4975574;28;20042;-87
2023/12/22 01:12:28;;;;;;;0.10;0.10;;;;;;;;;;4975778;28;20052;-87
2023/12/22 01:14:53;;;;;;;0.13;0.13;;;;;;;;;;4975649;28;20491;-88
2023/12/22 01:17:19;;;;;;;0.10;0.10;;;;;;;;;;4975636;28;20044;-88
2023/12/22 01:19:45;;;;;;;0.20;0.20;;;;;;;;;;4959627;28;20046;-87
2023/12/22 01:22:11;;;;;;;0.10;0.10;;;;;;;;;;4991669;28;20053;-87
2023/12/22 01:24:42;;;;;;;0.17;0.17;;;;;;;;;;4975654;28;20046;-87
2023/12/22 01:27:09;;;;;;;0.10;0.10;;;;;;;;;;4975471;28;20043;-86
2023/12/22 01:29:35;;;;;;;0.20;0.20;;;;;;;;;;4975346;28;20089;-86
2023/12/22 01:32:00;;;;;;;5.82;0.55;;;;;;;;;;4975418;28;20038;-87
2023/12/22 01:34:26;;;;;;;0.10;0.10;;;;;;;;;;4991487;28;20042;-87
2023/12/22 01:36:52;;;;;;;0.30;0.30;;;;;;;;;;4975468;28;20084;-86
2023/12/22 01:39:19;;;;;;;0.40;0.40;;;;;;;;;;4991520;28;20444;-86
2023/12/22 01:41:45;;;;;;;0.10;0.10;;;;;;;;;;4991433;28;20064;-87
2023/12/22 01:44:11;;;;;;;0.10;0.10;;;;;;;;;;4975485;28;20125;-87
2023/12/22 01:46:37;;;;;;;0.10;0.10;;;;;;;;;;4975318;28;20072;-86
2023/12/22 01:49:03;;;;;;;0.20;0.20;;;;;;;;;;4991344;28;20505;-87
2023/12/22 01:51:30;;;;;;;0.10;0.10;;;;;;;;;;4975117;28;20038;-86
2023/12/22 01:53:56;;;;;;;0.10;0.10;;;;;;;;;;4975190;28;20518;-87
2023/12/22 01:56:22;;;;;;;0.10;0.10;;;;;;;;;;4991348;28;20081;-86
2023/12/22 01:58:48;;;;;;;0.10;0.10;;;;;;;;;;4975101;28;20065;-87
2023/12/22 02:01:14;;;;;;;0.45;0.45;;;;;;;;;;4974849;28;20046;-86
2023/12/22 02:03:40;;;;;;;0.10;0.10;;;;;;;;;;4975124;28;20054;-87
2023/12/22 02:06:06;;;;;;;0.10;0.10;;;;;;;;;;4974979;28;20042;-87
2023/12/22 02:08:35;;;;;;;0.68;0.68;;;;;;;;;;4991295;28;20039;-87
2023/12/22 02:11:01;;;;;;;0.20;0.20;;;;;;;;;;4974967;28;20483;-86
2023/12/22 02:13:28;;;;;;;0.10;0.10;;;;;;;;;;4991150;28;20066;-87
2023/12/22 02:15:57;;;;;;;0.10;0.10;;;;;;;;;;4975020;28;20050;-86
2023/12/22 02:18:25;;;;;;;0.20;0.20;;;;;;;;;;4991263;28;20563;-85
2023/12/22 02:20:53;;;;;;;0.10;0.10;;;;;;;;;;4974966;28;20042;-86
2023/12/22 02:23:19;;;;;;;0.20;0.20;;;;;;;;;;4990995;28;20043;-86
2023/12/22 02:25:45;;;;;;;0.10;0.10;;;;;;;;;;4974996;28;20057;-87
2023/12/22 02:28:11;;;;;;;0.15;0.15;;;;;;;;;;4974950;28;20486;-86
2023/12/22 02:30:44;;;;;;;0.20;0.20;;;;;;;;;;4974717;28;20042;-86
2023/12/22 02:33:10;;;;;;;0.35;0.35;;;;;;;;;;4991046;28;20493;-86
2023/12/22 02:35:36;;;;;;;0.20;0.20;;;;;;;;;;4991066;28;20540;-88
2023/12/22 02:38:03;;;;;;;0.20;0.20;;;;;;;;;;4975010;28;20131;-86
2023/12/22 02:40:28;;;;;;;0.30;0.30;;;;;;;;;;4978647;28;20093;-87
2023/12/22 02:42:54;;;;;;;0.17;0.17;;;;;;;;;;4978255;28;20038;-87
2023/12/22 02:45:21;;;;;;;0.10;0.10;;;;;;;;;;4962168;28;20264;-87
2023/12/22 02:47:47;;;;;;;0.20;0.20;;;;;;;;;;4978282;28;20046;-88
2023/12/22 02:50:13;;;;;;;0.30;0.30;;;;;;;;;;4994599;28;20479;-87
2023/12/22 02:52:39;;;;;;;0.17;0.17;;;;;;;;;;4978138;28;20038;-87
2023/12/22 02:55:06;;;;;;;0.10;0.10;;;;;;;;;;4978152;28;20046;-87
2023/12/22 02:57:32;;;;;;;0.20;0.20;;;;;;;;;;4978240;28;20434;-87
2023/12/22 02:59:58;;;;;;;0.10;0.10;;;;;;;;;;4978015;28;20492;-88
2023/12/22 03:02:24;;;;;;;0.10;0.10;;;;;;;;;;4977757;28;20058;-87
2023/12/22 03:04:50;;;;;;;0.10;0.10;;;;;;;;;;4977964;28;20054;-88
2023/12/22 03:07:16;;;;;;;0.10;0.10;;;;;;;;;;4978291;28;20081;-87
2023/12/22 03:09:45;;;;;;;0.10;0.10;;;;;;;;;;4977775;28;20438;-87
2023/12/22 03:12:11;;;;;;;0.10;0.10;;;;;;;;;;4977652;28;20045;-87
2023/12/22 03:14:37;;;;;;;0.20;0.20;;;;;;;;;;4977943;28;20042;-86
2023/12/22 03:17:03;;;;;;;0.10;0.10;;;;;;;;;;4993785;28;20042;-87
2023/12/22 03:19:29;;;;;;;0.10;0.10;;;;;;;;;;4977771;28;20469;-88
2023/12/22 03:21:56;;;;;;;0.10;0.10;;;;;;;;;;4961527;28;20042;-87
2023/12/22 03:24:23;;;;;;;0.10;0.10;;;;;;;;;;4977433;28;20490;-86
2023/12/22 03:26:49;;;;;;;0.10;0.10;;;;;;;;;;4977676;28;20034;-88
2023/12/22 03:29:15;;;;;;;0.10;0.10;;;;;;;;;;4977593;28;20034;-88
2023/12/22 03:31:41;;;;;;;0.30;0.30;;;;;;;;;;4977343;28;20125;-87
2023/12/22 03:34:07;;;;;;;0.10;0.10;;;;;;;;;;4977423;28;20522;-86
2023/12/22 03:36:33;;;;;;;0.10;0.10;;;;;;;;;;4961514;28;20182;-86
2023/12/22 03:38:59;;;;;;;0.10;0.10;;;;;;;;;;4977451;28;20046;-86
2023/12/22 03:41:26;;;;;;;0.10;0.10;;;;;;;;;;4977125;28;20150;-86
2023/12/22 03:43:52;;;;;;;0.10;0.10;;;;;;;;;;4961128;28;20458;-86
2023/12/22 03:46:18;;;;;;;3.53;3.17;;;;;;;;;;4977339;28;20042;-85
2023/12/22 03:48:44;;;;;;;0.10;0.10;;;;;;;;;;4977115;28;20101;-86
2023/12/22 03:51:13;;;;;;;0.45;0.45;;;;;;;;;;4992980;28;20130;-86
2023/12/22 03:53:39;;;;;;;0.20;0.20;;;;;;;;;;4976977;28;20108;-87
2023/12/22 03:56:05;;;;;;;0.13;0.13;;;;;;;;;;4976970;28;20482;-87
2023/12/22 03:58:31;;;;;;;2.00;0.73;;;;;;;;;;4993507;28;20074;-87
2023/12/22 04:00:57;;;;;;;0.10;0.10;;;;;;;;;;4976738;28;20065;-86
2023/12/22 04:03:23;;;;;;;0.52;0.20;;;;;;;;;;4976771;28;20080;-87
2023/12/22 04:05:49;;;;;;;1.77;0.47;;;;;;;;;;4976950;28;20433;-87
2023/12/22 04:08:15;;;;;;;0.10;0.10;;;;;;;;;;4960699;28;20182;-86
2023/12/22 04:10:41;;;;;;;0.10;0.10;;;;;;;;;;4976591;28;20150;-85
2023/12/22 04:13:07;;;;;;;0.10;0.10;;;;;;;;;;4992953;28;20093;-86
2023/12/22 04:15:33;;;;;;;0.10;0.10;;;;;;;;;;4976719;28;20046;-87
2023/12/22 04:17:59;;;;;;;0.35;0.35;;;;;;;;;;4992794;28;20129;-87
2023/12/22 04:20:25;;;;;;;0.10;0.10;;;;;;;;;;4976517;28;20406;-86
2023/12/22 04:22:51;;;;;;;0.10;0.10;;;;;;;;;;4992713;28;20053;-86
2023/12/22 04:25:17;;;;;;;0.10;0.10;;;;;;;;;;4993059;28;20112;-87
2023/12/22 04:27:44;;;;;;;0.10;0.10;;;;;;;;;;4976730;28;20390;-87
2023/12/22 04:30:10;;;;;;;0.20;0.20;;;;;;;;;;4976464;28;20406;-87
2023/12/22 04:32:36;;;;;;;0.10;0.10;;;;;;;;;;4960335;28;20085;-87
2023/12/22 04:35:03;;;;;;;0.10;0.10;;;;;;;;;;4992729;28;20077;-86
2023/12/22 04:37:29;;;;;;;0.10;0.10;;;;;;;;;;4992422;28;20506;-86
2023/12/22 04:39:55;;;;;;;0.10;0.10;;;;;;;;;;4976254;28;20081;-86
2023/12/22 04:42:21;;;;;;;1.75;1.40;;;;;;;;;;4976402;28;20069;-86
2023/12/22 04:44:47;;;;;;;0.10;0.10;;;;;;;;;;4976070;28;20081;-86
2023/12/22 04:47:13;;;;;;;0.10;0.10;;;;;;;;;;4959990;28;20038;-86
2023/12/22 04:49:39;;;;;;;0.10;0.10;;;;;;;;;;4959799;28;20073;-85
2023/12/22 04:52:05;;;;;;;0.40;0.40;;;;;;;;;;4992171;28;20069;-86
2023/12/22 04:54:31;;;;;;;0.20;0.20;;;;;;;;;;4992101;28;20042;-86
2023/12/22 04:56:57;;;;;;;0.10;0.10;;;;;;;;;;4992033;28;20084;-86
2023/12/22 04:59:23;;;;;;;0.52;0.43;;;;;;;;;;4976024;28;20038;-87
2023/12/22 05:01:49;;;;;;;0.60;0.60;;;;;;;;;;4975057;28;20262;-86
2023/12/22 05:04:17;;;;;;;0.10;0.10;;;;;;;;;;4975785;28;20042;-86
2023/12/22 05:06:43;;;;;;;0.10;0.10;;;;;;;;;;4975634;28;20097;-86
2023/12/22 05:09:09;;;;;;;1.65;0.28;;;;;;;;;;4991897;28;20068;-85
2023/12/22 05:11:35;;;;;;;0.17;0.17;;;;;;;;;;4959353;28;20129;-87
2023/12/22 05:14:01;;;;;;;0.80;0.20;;;;;;;;;;4975592;28;20066;-86
2023/12/22 05:16:29;;;;;;;0.10;0.10;;;;;;;;;;4991808;28;20062;-86
2023/12/22 05:18:55;;;;;;;0.10;0.10;;;;;;;;;;4975924;28;20146;-86
2023/12/22 05:21:21;;;;;;;0.10;0.10;;;;;;;;;;4975503;28;20042;-87
2023/12/22 05:23:47;;;;;;;0.20;0.20;;;;;;;;;;4975650;28;20042;-87
2023/12/22 05:26:17;;;;;;;0.10;0.10;;;;;;;;;;4975477;28;20513;-86
2023/12/22 05:28:43;;;;;;;0.20;0.20;;;;;;;;;;4975358;28;20038;-87
2023/12/22 05:31:09;;;;;;;0.20;0.20;;;;;;;;;;4975323;28;20045;-86
2023/12/22 05:33:35;;;;;;;0.88;0.35;;;;;;;;;;4991566;28;20049;-86
2023/12/22 05:36:01;;;;;;;0.10;0.10;;;;;;;;;;4975555;28;20386;-87
2023/12/22 05:38:27;;;;;;;0.10;0.10;;;;;;;;;;4991529;28;20048;-86
2023/12/22 05:40:53;;;;;;;0.20;0.20;;;;;;;;;;4975514;28;20053;-87
2023/12/22 05:43:19;;;;;;;0.20;0.20;;;;;;;;;;4991383;28;20125;-87
2023/12/22 05:45:45;;;;;;;0.10;0.10;;;;;;;;;;4975625;28;20069;-87
2023/12/22 05:48:11;;;;;;;9.45;0.82;;;;;;;;;;4975294;28;20483;-86
2023/12/22 05:50:37;;;;;;;0.20;0.20;;;;;;;;;;4975308;28;20184;-89
2023/12/22 05:53:03;;;;;;;0.20;0.20;;;;;;;;;;4975990;28;20042;-89
2023/12/22 05:55:29;;;;;;;0.43;0.43;;;;;;;;;;4975583;28;20046;-88
2023/12/22 05:57:55;;;;;;;0.10;0.10;;;;;;;;;;4975619;28;20046;-87
2023/12/22 06:00:21;;;;;;;0.10;0.10;;;;;;;;;;4974936;28;20042;-87
2023/12/22 06:02:47;;;;;;;0.30;0.30;;;;;;;;;;4991323;28;20050;-87
2023/12/22 06:05:13;;;;;;;0.98;0.38;;;;;;;;;;4975077;28;20050;-87
2023/12/22 06:07:40;;;;;;;0.10;0.10;;;;;;;;;;4975184;28;20042;-87
2023/12/22 06:10:09;;;;;;;0.10;0.10;;;;;;;;;;4975119;28;20043;-87
2023/12/22 06:12:35;;;;;;;0.10;0.10;;;;;;;;;;4975964;28;20038;-87
2023/12/22 06:15:01;;;;;;;0.10;0.10;;;;;;;;;;4978950;28;20190;-87
2023/12/22 06:17:27;;;;;;;0.10;0.10;;;;;;;;;;4979008;28;20583;-86
2023/12/22 06:19:53;;;;;;;0.20;0.20;;;;;;;;;;4978821;28;20061;-88
2023/12/22 06:22:19;;;;;;;1.65;0.35;;;;;;;;;;4978823;28;20049;-88
2023/12/22 06:24:45;;;;;;;0.13;0.13;;;;;;;;;;4978882;28;20213;-88
2023/12/22 06:27:11;;;;;;;0.22;0.22;;;;;;;;;;4979086;28;20102;-87
2023/12/22 06:29:37;;;;;;;0.57;0.35;;;;;;;;;;4994805;28;20045;-87
2023/12/22 06:32:05;;;;;;;0.13;0.13;;;;;;;;;;4978628;28;20034;-86
2023/12/22 06:34:31;;;;;;;0.10;0.10;;;;;;;;;;4962494;28;20046;-87
2023/12/22 06:36:57;;;;;;;0.10;0.10;;;;;;;;;;4978784;28;20042;-88
2023/12/22 06:39:23;;;;;;;0.10;0.10;;;;;;;;;;4978404;28;20077;-87
2023/12/22 06:41:50;;;;;;;0.22;0.22;;;;;;;;;;4978404;28;20128;-87
2023/12/22 06:44:16;;;;;;;0.10;0.10;;;;;;;;;;4994672;28;20053;-85
2023/12/22 06:46:42;;;;;;;0.22;0.22;;;;;;;;;;4978261;28;20038;-87
2023/12/22 06:49:08;;;;;;;2.17;0.57;;;;;;;;;;4978342;28;20442;-87
2023/12/22 06:51:35;;;;;;;0.10;0.10;;;;;;;;;;4978458;28;20389;-87
2023/12/22 06:54:01;;;;;;;0.10;0.10;;;;;;;;;;4978245;28;20209;-86
2023/12/22 06:56:27;;;;;;;0.10;0.10;;;;;;;;;;4978407;28;20042;-86
2023/12/22 06:58:54;;;;;;;0.28;0.28;;;;;;;;;;4994404;28;20050;-87
2023/12/22 07:01:28;;;;;;;0.10;0.10;;;;;;;;;;4977705;28;20054;-87
2023/12/22 07:03:54;;;;;;;0.10;0.10;;;;;;;;;;4978103;28;20050;-88
2023/12/22 07:06:20;;;;;;;2.38;1.98;;;;;;;;;;4977842;28;20090;-87
2023/12/22 07:09:05;;;;;;;13.70;1.05;;;;;;;;;;4977986;28;20046;-87
2023/12/22 07:11:31;;;;;;;0.20;0.20;;;;;;;;;;4994096;28;20035;-87
2023/12/22 07:13:57;;;;;;;0.10;0.10;;;;;;;;;;4978003;28;20046;-87
2023/12/22 07:16:23;;;;;;;0.10;0.10;;;;;;;;;;4994003;28;20069;-87
2023/12/22 07:18:51;;;;;;;0.20;0.20;;;;;;;;;;4977708;28;20042;-87
2023/12/22 07:21:18;;;;;;;0.10;0.10;;;;;;;;;;4977854;28;20048;-86
2023/12/22 07:23:45;;;;;;;0.10;0.10;;;;;;;;;;4977481;28;20078;-87
2023/12/22 07:26:11;;;;;;;0.10;0.10;;;;;;;;;;4977082;28;20045;-87
2023/12/22 07:28:37;;;;;;;0.10;0.10;;;;;;;;;;4993765;28;20038;-87
2023/12/22 07:31:04;;;;;;;0.10;0.10;;;;;;;;;;4977513;28;20482;-86
2023/12/22 07:33:30;;;;;;;0.10;0.10;;;;;;;;;;4977573;28;20092;-87
2023/12/22 07:35:56;;;;;;;0.80;0.80;;;;;;;;;;4977525;28;20077;-87
2023/12/22 07:38:22;;;;;;;0.10;0.10;;;;;;;;;;4977356;28;20042;-87
2023/12/22 07:40:49;;;;;;;0.10;0.10;;;;;;;;;;4977292;28;20044;-87
2023/12/22 07:43:15;;;;;;;0.10;0.10;;;;;;;;;;4977190;28;20104;-87
2023/12/22 07:45:41;;;;;;;0.20;0.20;;;;;;;;;;4977564;28;20429;-87
2023/12/22 07:48:07;;;;;;;0.10;0.10;;;;;;;;;;4977107;28;20045;-88
2023/12/22 07:50:34;;;;;;;2.28;1.13;;;;;;;;;;4977111;28;20520;-87
2023/12/22 07:53:00;;;;;;;0.20;0.20;;;;;;;;;;4977208;28;20049;-88
2023/12/22 07:55:26;;;;;;;0.10;0.10;;;;;;;;;;4993584;28;20054;-88
2023/12/22 07:57:52;;;;;;;0.10;0.10;;;;;;;;;;4976103;28;20385;-87
2023/12/22 08:00:18;;;;;;;2.05;1.95;;;;;;;;;;4976820;28;20042;-88
2023/12/22 08:02:44;;;;;;;0.10;0.10;;;;;;;;;;4993237;28;20038;-88
2023/12/22 08:05:10;;;;;;;0.10;0.10;;;;;;;;;;4976566;28;20034;-87
2023/12/22 08:07:37;;;;;;;0.10;0.10;;;;;;;;;;4977941;28;20038;-87
2023/12/22 08:10:03;;;;;;;0.10;0.10;;;;;;;;;;4961111;28;20176;-88
2023/12/22 08:12:29;;;;;;;0.30;0.30;;;;;;;;;;4960872;28;20038;-88
2023/12/22 08:14:55;;;;;;;0.10;0.10;;;;;;;;;;4993107;28;20126;-88
2023/12/22 08:17:21;;;;;;;0.20;0.20;;;;;;;;;;4977115;28;20042;-93
2023/12/22 08:19:47;;;;;;;0.10;0.10;;;;;;;;;;4993686;28;20102;-93
2023/12/22 08:22:13;;;;;;;0.10;0.10;;;;;;;;;;4976689;28;20089;-90
2023/12/22 08:24:39;;;;;;;0.10;0.10;;;;;;;;;;4976782;28;20046;-91
2023/12/22 08:27:09;;;;;;;0.10;0.10;;;;;;;;;;4977745;28;20042;-89
2023/12/22 08:29:35;;;;;;;0.10;0.10;;;;;;;;;;4992281;28;20046;-93
2023/12/22 08:32:01;;;;;;;0.10;0.10;;;;;;;;;;4961549;28;20042;-92
2023/12/22 08:34:28;;;;;;;0.10;0.10;;;;;;;;;;4961100;28;20468;-90
2023/12/22 08:36:54;;;;;;;0.10;0.10;;;;;;;;;;4976180;28;20043;-88
2023/12/22 08:39:20;;;;;;;0.30;0.30;;;;;;;;;;4975918;28;20081;-88
2023/12/22 08:41:46;;;;;;;0.57;0.57;;;;;;;;;;4976411;28;20046;-88
2023/12/22 08:44:14;;;;;;;0.17;0.17;;;;;;;;;;4976288;28;20391;-89
2023/12/22 08:46:40;;;;;;;0.10;0.10;;;;;;;;;;4976254;28;20081;-87
2023/12/22 08:49:06;;;;;;;0.10;0.10;;;;;;;;;;4972835;28;20038;-88
2023/12/22 08:51:32;;;;;;;0.10;0.10;;;;;;;;;;4940846;28;20039;-88
2023/12/22 08:53:58;;;;;;;0.10;0.10;;;;;;;;;;4953100;28;20402;-88
2023/12/22 08:56:24;;;;;;;0.10;0.10;;;;;;;;;;4976052;28;20544;-88
2023/12/22 08:58:51;;;;;;;0.10;0.10;;;;;;;;;;4975610;28;20094;-88
2023/12/22 09:01:18;;;;;;;0.13;0.13;;;;;;;;;;4975507;28;20065;-89
2023/12/22 09:03:46;;;;;;;0.10;0.10;;;;;;;;;;4972236;28;20082;-87
2023/12/22 09:06:15;;;;;;;0.10;0.10;;;;;;;;;;4948114;28;20039;-88
2023/12/22 09:08:42;;;;;;;1.00;0.43;;;;;;;;;;4974816;28;20046;-88
2023/12/22 09:11:08;;;;;;;0.20;0.20;;;;;;;;;;4975561;28;20165;-88
2023/12/22 09:13:35;;;;;;;0.10;0.10;;;;;;;;;;4976180;28;20077;-89
2023/12/22 09:16:04;;;;;;;0.10;0.10;;;;;;;;;;4960273;28;20069;-88
2023/12/22 09:18:31;;;;;;;0.10;0.10;;;;;;;;;;4960154;28;20046;-86
2023/12/22 09:20:58;;;;;;;0.10;0.10;;;;;;;;;;4975963;28;20046;-92
2023/12/22 09:23:24;;;;;;;0.10;0.10;;;;;;;;;;4984387;28;20080;-93
2023/12/22 09:25:50;;;;;;;0.10;0.10;;;;;;;;;;4995252;28;20042;-91
2023/12/22 09:28:17;;;;;;;0.10;0.10;;;;;;;;;;4997718;28;20485;-93
2023/12/22 09:30:43;;;;;;;0.10;0.10;;;;;;;;;;5012179;28;20126;-90
2023/12/22 09:33:09;;;;;;;0.10;0.10;;;;;;;;;;4994959;28;20038;-87
2023/12/22 09:35:35;;;;;;;0.10;0.10;;;;;;;;;;4994940;28;20133;-88
2023/12/22 09:38:02;;;;;;;0.10;0.10;;;;;;;;;;5011034;28;20049;-88
2023/12/22 09:40:28;;;;;;;0.10;0.10;;;;;;;;;;5010985;28;20103;-88
2023/12/22 09:42:57;;;;;;;0.10;0.10;;;;;;;;;;4994692;28;20512;-89
2023/12/22 09:45:23;;;;;;;0.40;0.40;;;;;;;;;;4994700;28;20049;-89
2023/12/22 09:47:49;;;;;;;0.10;0.10;;;;;;;;;;5013805;28;20046;-89
2023/12/22 09:50:16;;;;;;;0.10;0.10;;;;;;;;;;5001570;28;20362;-88
2023/12/22 09:52:45;;;;;;;0.10;0.10;;;;;;;;;;5017768;28;20125;-89
2023/12/22 09:55:11;;;;;;;0.10;0.10;;;;;;;;;;5001668;28;20477;-88
2023/12/22 09:57:39;;;;;;;0.10;0.10;;;;;;;;;;5001335;28;20045;-88
2023/12/22 10:00:06;;;;;;;0.10;0.10;;;;;;;;;;5001378;28;20037;-88
2023/12/22 10:02:32;;;;;;;0.10;0.10;;;;;;;;;;5017458;28;20069;-88
2023/12/22 10:04:58;;;;;;;0.10;0.10;;;;;;;;;;5001550;28;20136;-89
2023/12/22 10:07:24;;;;;;;0.10;0.10;;;;;;;;;;5001882;28;20074;-90
2023/12/22 10:09:50;;;;;;;0.10;0.10;;;;;;;;;;5017843;28;20503;-89
2023/12/22 10:12:17;;;;;;;0.10;0.10;;;;;;;;;;5001401;28;20073;-90
2023/12/22 10:14:42;;;;;;;0.10;0.10;;;;;;;;;;5001447;28;20080;-89
2023/12/22 10:17:08;;;;;;;0.10;0.10;;;;;;;;;;5017580;28;20038;-88
2023/12/22 10:19:34;;;;;;;0.10;0.10;;;;;;;;;;5017525;28;20125;-88
2023/12/22 10:22:00;;;;;;;0.10;0.10;;;;;;;;;;5017713;28;20038;-86
2023/12/22 10:24:40;;;;;;;0.10;0.10;;;;;;;;;;5017207;28;20041;-87
2023/12/22 10:27:06;;;;;;;0.10;0.10;;;;;;;;;;5001136;28;20042;-89
2023/12/22 10:29:32;;;;;;;0.10;0.10;;;;;;;;;;5000948;28;20092;-90
2023/12/22 10:31:59;;;;;;;0.10;0.10;;;;;;;;;;5009684;28;20487;-88
2023/12/22 10:34:25;;;;;;;0.15;0.15;;;;;;;;;;4981093;28;20080;-89
2023/12/22 10:36:51;;;;;;;0.10;0.10;;;;;;;;;;4981742;28;20078;-91
2023/12/22 10:39:17;;;;;;;0.10;0.10;;;;;;;;;;4982321;28;20104;-90
2023/12/22 10:41:43;;;;;;;0.10;0.10;;;;;;;;;;4982294;28;20038;-86
2023/12/22 10:44:09;;;;;;;0.10;0.10;;;;;;;;;;4964879;28;20049;-86
2023/12/22 10:46:35;;;;;;;0.10;0.10;;;;;;;;;;4983439;28;20509;-86
2023/12/22 10:49:02;;;;;;;0.10;0.10;;;;;;;;;;5000586;28;20042;-85
2023/12/22 10:51:32;;;;;;;0.10;0.10;;;;;;;;;;5000259;28;20084;-86
2023/12/22 10:53:58;;;;;;;0.17;0.17;;;;;;;;;;5000635;28;20136;-85
2023/12/22 10:56:24;;;;;;;0.10;0.10;;;;;;;;;;5016707;28;20450;-87
2023/12/22 10:58:50;;;;;;;0.25;0.25;;;;;;;;;;5016607;28;20084;-87
2023/12/22 11:01:16;;;;;;;3.00;2.20;;;;;;;;;;5043278;23;20528;-86
2023/12/22 11:03:44;;;;;;;0.30;0.30;;;;;;;;;;5014539;28;20042;-88
2023/12/22 11:06:11;;;;;;;0.10;0.10;;;;;;;;;;5014792;28;20395;-86
2023/12/22 11:08:37;;;;;;;0.10;0.10;;;;;;;;;;5014437;28;20080;-86
2023/12/22 11:11:04;;;;;;;0.10;0.10;;;;;;;;;;5014013;28;20041;-86
2023/12/22 11:13:30;;;;;;;0.10;0.10;;;;;;;;;;4980888;28;20042;-86
2023/12/22 11:15:56;;;;;;;0.10;0.10;;;;;;;;;;4997475;28;20137;-86
2023/12/22 11:18:22;;;;;;;0.20;0.20;;;;;;;;;;4979719;28;20401;-88
2023/12/22 11:20:48;;;;;;;0.10;0.10;;;;;;;;;;4996995;28;20041;-87
2023/12/22 11:23:14;;;;;;;0.20;0.20;;;;;;;;;;4997114;28;20042;-88
2023/12/22 11:25:40;;;;;;;0.10;0.10;;;;;;;;;;4997149;28;20123;-89
2023/12/22 11:28:06;;;;;;;0.10;0.10;;;;;;;;;;4996966;28;20405;-87
2023/12/22 11:30:32;;;;;;;0.20;0.20;;;;;;;;;;4980865;28;20037;-87
2023/12/22 11:32:58;;;;;;;0.10;0.10;;;;;;;;;;4980904;28;20030;-86
2023/12/22 11:35:24;;;;;;;0.20;0.20;;;;;;;;;;4996777;28;20488;-87
2023/12/22 11:37:50;;;;;;;0.20;0.20;;;;;;;;;;5013427;28;20042;-86
2023/12/22 11:40:16;;;;;;;0.10;0.10;;;;;;;;;;4996974;28;20053;-87
2023/12/22 11:42:44;;;;;;;0.38;0.20;;;;;;;;;;5012694;28;20041;-87
2023/12/22 11:45:11;;;;;;;0.20;0.20;;;;;;;;;;4980697;28;20510;-87
2023/12/22 11:47:37;;;;;;;0.65;0.65;;;;;;;;;;4980443;28;20057;-88
2023/12/22 11:50:03;;;;;;;0.10;0.10;;;;;;;;;;4980519;28;20044;-89
2023/12/22 11:52:29;;;;;;;0.10;0.10;;;;;;;;;;4980530;28;20049;-88
2023/12/22 11:54:56;;;;;;;0.10;0.10;;;;;;;;;;4997418;28;20046;-87
2023/12/22 11:57:28;;;;;;;0.10;0.10;;;;;;;;;;4996619;28;20453;-88
2023/12/22 11:59:55;;;;;;;0.15;0.15;;;;;;;;;;5012800;28;20042;-87
2023/12/22 12:02:21;;;;;;;0.10;0.10;;;;;;;;;;5012813;28;20058;-88
2023/12/22 12:04:50;;;;;;;0.10;0.10;;;;;;;;;;4996442;28;20054;-87
2023/12/22 12:07:35;;;;;;;0.10;0.10;;;;;;;;;;4996500;28;20121;-87
2023/12/22 12:10:01;;;;;;;0.10;0.10;;;;;;;;;;5012851;28;20096;-89
2023/12/22 12:12:27;;;;;;;0.10;0.10;;;;;;;;;;4981295;28;20041;-87
2023/12/22 12:14:54;;;;;;;0.20;0.20;;;;;;;;;;4980443;28;20042;-87
2023/12/22 12:17:20;;;;;;;0.10;0.10;;;;;;;;;;4980254;28;20041;-89
2023/12/22 12:19:46;;;;;;;0.10;0.10;;;;;;;;;;4996471;28;20038;-87
2023/12/22 12:22:13;;;;;;;0.10;0.10;;;;;;;;;;4996277;28;20080;-87
2023/12/22 12:24:39;;;;;;;0.10;0.10;;;;;;;;;;4996249;28;20527;-88
2023/12/22 12:27:05;;;;;;;0.10;0.10;;;;;;;;;;4996068;28;20081;-87
2023/12/22 12:29:32;;;;;;;0.10;0.10;;;;;;;;;;4996191;28;20034;-86
2023/12/22 12:32:07;;;;;;;0.10;0.10;;;;;;;;;;5012004;28;20095;-86
2023/12/22 12:34:33;;;;;;;0.10;0.10;;;;;;;;;;4995812;28;20041;-86
2023/12/22 12:36:59;;;;;;;0.10;0.10;;;;;;;;;;4979575;28;20048;-86
2023/12/22 12:39:28;;;;;;;0.20;0.20;;;;;;;;;;4996014;28;20053;-87
2023/12/22 12:41:54;;;;;;;0.10;0.10;;;;;;;;;;4979858;28;20069;-86
2023/12/22 12:44:20;;;;;;;0.10;0.10;;;;;;;;;;4992894;28;20049;-86
2023/12/22 12:46:46;;;;;;;0.10;0.10;;;;;;;;;;5011402;28;20544;-86
2023/12/22 12:49:14;;;;;;;0.45;0.45;;;;;;;;;;4995575;28;20076;-86
2023/12/22 12:51:42;;;;;;;0.10;0.10;;;;;;;;;;4979154;28;20485;-86
2023/12/22 12:54:09;;;;;;;0.10;0.10;;;;;;;;;;4995052;28;20049;-86
2023/12/22 12:56:41;;;;;;;0.10;0.10;;;;;;;;;;4995501;28;20063;-86
2023/12/22 12:59:14;;;;;;;0.10;0.10;;;;;;;;;;4979217;28;20104;-86
2023/12/22 13:01:40;;;;;;;0.10;0.10;;;;;;;;;;4978366;28;20088;-87
2023/12/22 13:04:06;;;;;;;0.10;0.10;;;;;;;;;;4978931;28;20046;-86
2023/12/22 13:06:33;;;;;;;0.10;0.10;;;;;;;;;;4979060;28;20047;-86
2023/12/22 13:08:59;;;;;;;0.10;0.10;;;;;;;;;;4979386;28;20049;-86
2023/12/22 13:11:26;;;;;;;0.10;0.10;;;;;;;;;;4995346;28;20034;-86
2023/12/22 13:13:52;;;;;;;0.10;0.10;;;;;;;;;;4978203;28;20069;-86
2023/12/22 13:16:22;;;;;;;0.20;0.20;;;;;;;;;;4995246;28;20042;-87
2023/12/22 13:18:48;;;;;;;0.10;0.10;;;;;;;;;;5011178;28;20574;-88
2023/12/22 13:21:14;;;;;;;2.00;0.52;;;;;;;;;;4995219;28;20053;-83
2023/12/22 13:23:40;;;;;;;0.20;0.20;;;;;;;;;;4994454;28;20507;-86
2023/12/22 13:26:18;;;;;;;0.10;0.10;;;;;;;;;;5011242;28;20344;-86
2023/12/22 13:28:44;;;;;;;0.22;0.22;;;;;;;;;;5011375;28;20052;-86
2023/12/22 13:31:14;;;;;;;0.10;0.10;;;;;;;;;;4993020;28;20041;-86
2023/12/22 13:33:43;;;;;;;0.10;0.10;;;;;;;;;;4994884;28;20499;-86
2023/12/22 13:36:09;;;;;;;0.10;0.10;;;;;;;;;;4994948;28;20054;-86
2023/12/22 13:38:35;;;;;;;5.47;0.40;;;;;;;;;;4995008;28;20087;-86
2023/12/22 13:41:04;;;;;;;0.10;0.10;;;;;;;;;;4994794;28;20052;-86
2023/12/22 13:43:30;;;;;;;0.10;0.10;;;;;;;;;;5011033;28;20104;-86
2023/12/22 13:45:56;;;;;;;0.10;0.10;;;;;;;;;;4995020;28;20042;-86
2023/12/22 13:48:23;;;;;;;0.38;0.38;;;;;;;;;;4995660;28;20041;-86
2023/12/22 13:51:01;;;;;;;0.10;0.10;;;;;;;;;;4994646;28;20077;-86
2023/12/22 13:53:27;;;;;;;0.10;0.10;;;;;;;;;;5011135;28;20053;-85
2023/12/22 13:56:00;;;;;;;0.10;0.10;;;;;;;;;;4994570;28;20045;-86
2023/12/22 13:58:26;;;;;;;1.45;0.20;;;;;;;;;;4995183;28;20603;-85
2023/12/22 14:00:53;;;;;;;0.10;0.10;;;;;;;;;;4994553;28;20057;-85
2023/12/22 14:03:21;;;;;;;0.60;0.60;;;;;;;;;;4994577;28;20052;-85
2023/12/22 14:05:49;;;;;;;0.10;0.10;;;;;;;;;;4995326;28;20050;-86
2023/12/22 14:08:15;;;;;;;0.10;0.10;;;;;;;;;;4994752;28;20513;-86
2023/12/22 14:10:45;;;;;;;0.10;0.10;;;;;;;;;;4994435;28;20495;-85
2023/12/22 14:13:11;;;;;;;0.10;0.10;;;;;;;;;;4994844;28;20034;-85
2023/12/22 14:15:37;;;;;;;0.17;0.17;;;;;;;;;;5009817;28;20037;-86
2023/12/22 14:18:04;;;;;;;0.30;0.30;;;;;;;;;;4994416;28;20038;-87
2023/12/22 14:20:30;;;;;;;0.10;0.10;;;;;;;;;;4978375;28;20541;-85
2023/12/22 14:22:56;;;;;;;0.10;0.10;;;;;;;;;;4994216;28;20120;-87
2023/12/22 14:25:22;;;;;;;0.10;0.10;;;;;;;;;;5010684;28;20404;-86
2023/12/22 14:27:48;;;;;;;0.10;0.10;;;;;;;;;;4994676;28;20073;-85
2023/12/22 14:30:14;;;;;;;0.10;0.10;;;;;;;;;;4994548;28;20038;-86
2023/12/22 14:32:40;;;;;;;0.10;0.10;;;;;;;;;;4994488;28;20125;-86
2023/12/22 14:35:06;;;;;;;0.10;0.10;;;;;;;;;;5012540;28;20136;-85
2023/12/22 14:37:32;;;;;;;0.20;0.20;;;;;;;;;;4981708;28;20492;-86
2023/12/22 14:39:58;;;;;;;0.10;0.10;;;;;;;;;;4997898;28;20077;-88